PWSweather.com
Personal Weather Stations
Station Observations
IBRABANT12
Leuven, BlandenBE 3052

LeuvenBlandenBE 3052

Lat: 50.8252218, Lon: 4.709682799999996

Elevation: 193

Station Type: Davis Vantage Vue

http://www.weerstationblanden.be

Latest ConditionsUpdated 7:10:16 PM GMT+01:01 Wednesday, Oct 1, 2014
Currently Today's Max Today's Min Today's Average
Temperature 61.7°F16.5°C 71.5°F21.9°C 51.9°F11.1°C 62.2°F16.8°C
Dew Point 58.4°F14.7°C 61.0°F16.1°C 51.1°F10.6°C 56.7°F13.7°C
Winds Calm Calm 6.9 mph SW11.1 kmh SW - 2.0 mph 3.2 kmh
Wind Gusts -- 11.0 mph17.7 kmh - -
Humidity 89% 98% 64% 84%
Pressure 30.27 in1025.1 mb 30.28 in1025.4 mb 30.23 in1023.7 mb -
Precipitation - 0.01 in0.3 mm - -
Hour Temp Dew Point Humidity Winds Wind Gusts Pressure Precip Precip Rate Daily Precip Total
07:10 PM 61.7°F16.5°C 58.4°F14.7°C 89% Calm Calm -- 30.27 in1025.1 mb 0.00 in0.0 mm 0.00 in/hr0.0 mm/hr 0.01 in0.3 mm
07:00 PM 62.3°F16.8°C 58.7°F14.8°C 88% Calm Calm -- 30.27 in1025.1 mb 0.00 in0.0 mm 0.00 in/hr0.0 mm/hr 0.01 in0.3 mm
06:50 PM 63.0°F17.2°C 59.1°F15.1°C 87% Calm Calm -- 30.27 in1025.1 mb 0.00 in0.0 mm 0.00 in/hr0.0 mm/hr 0.01 in0.3 mm
06:40 PM 63.8°F17.7°C 59.5°F15.3°C 86% Calm Calm -- 30.27 in1025.1 mb 0.00 in0.0 mm 0.00 in/hr0.0 mm/hr 0.01 in0.3 mm
06:30 PM 64.5°F18.1°C 59.9°F15.5°C 85% Calm Calm -- 30.27 in1025.1 mb 0.00 in0.0 mm 0.00 in/hr0.0 mm/hr 0.01 in0.3 mm
06:20 PM 65.2°F18.4°C 60.3°F15.7°C 84% Calm Calm -- 30.26 in1024.7 mb 0.00 in0.0 mm 0.00 in/hr0.0 mm/hr 0.01 in0.3 mm
06:10 PM 65.8°F18.8°C 60.5°F15.8°C 83% Calm Calm -- 30.26 in1024.7 mb 0.00 in0.0 mm 0.00 in/hr0.0 mm/hr 0.01 in0.3 mm
06:00 PM 66.6°F19.2°C 60.6°F15.9°C 81% Calm Calm 1.0 mph1.6 kmh 30.26 in1024.7 mb 0.00 in0.0 mm 0.00 in/hr0.0 mm/hr 0.01 in0.3 mm
05:50 PM 67.8°F19.9°C 61.0°F16.1°C 79% Calm Calm -- 30.25 in1024.4 mb 0.00 in0.0 mm 0.00 in/hr0.0 mm/hr 0.01 in0.3 mm
05:40 PM 68.1°F20.1°C 60.9°F16.1°C 78% Calm Calm -- 30.25 in1024.4 mb 0.00 in0.0 mm 0.00 in/hr0.0 mm/hr 0.01 in0.3 mm
05:30 PM 69.4°F20.8°C 60.0°F15.6°C 72% 1.2 mph SSW1.9 kmh SSW 2.0 mph3.2 kmh 30.25 in1024.4 mb 0.00 in0.0 mm 0.00 in/hr0.0 mm/hr 0.01 in0.3 mm
05:20 PM 70.1°F21.2°C 59.0°F15.0°C 68% 2.3 mph SW3.7 kmh SW 3.0 mph4.8 kmh 30.25 in1024.4 mb 0.00 in0.0 mm 0.00 in/hr0.0 mm/hr 0.01 in0.3 mm
05:10 PM 70.4°F21.3°C 58.9°F14.9°C 67% 3.3 mph SW5.3 kmh SW 4.0 mph6.4 kmh 30.25 in1024.4 mb 0.00 in0.0 mm 0.00 in/hr0.0 mm/hr 0.01 in0.3 mm
05:00 PM 71.3°F21.8°C 60.2°F15.7°C 68% 2.1 mph SW3.4 kmh SW 3.0 mph4.8 kmh 30.25 in1024.4 mb 0.00 in0.0 mm 0.00 in/hr0.0 mm/hr 0.01 in0.3 mm
04:50 PM 71.5°F21.9°C 59.1°F15.1°C 65% 2.0 mph SW3.2 kmh SW 2.0 mph3.2 kmh 30.25 in1024.4 mb 0.00 in0.0 mm 0.00 in/hr0.0 mm/hr 0.01 in0.3 mm
04:40 PM 70.7°F21.5°C 59.2°F15.1°C 67% 1.4 mph SSW2.3 kmh SSW 1.0 mph1.6 kmh 30.25 in1024.4 mb 0.00 in0.0 mm 0.00 in/hr0.0 mm/hr 0.01 in0.3 mm
04:30 PM 70.4°F21.3°C 59.3°F15.2°C 68% 2.7 mph SW4.3 kmh SW 3.0 mph4.8 kmh 30.25 in1024.4 mb 0.00 in0.0 mm 0.00 in/hr0.0 mm/hr 0.01 in0.3 mm
04:20 PM 71.0°F21.7°C 59.1°F15.1°C 66% 3.6 mph SW5.8 kmh SW 5.0 mph8.0 kmh 30.25 in1024.4 mb 0.00 in0.0 mm 0.00 in/hr0.0 mm/hr 0.01 in0.3 mm
04:10 PM 71.3°F21.8°C 58.9°F14.9°C 65% 3.1 mph SW5.0 kmh SW 5.0 mph8.0 kmh 30.25 in1024.4 mb 0.00 in0.0 mm 0.00 in/hr0.0 mm/hr 0.01 in0.3 mm
04:00 PM 70.9°F21.6°C 58.5°F14.7°C 65% 3.9 mph SW6.3 kmh SW 4.0 mph6.4 kmh 30.25 in1024.4 mb 0.00 in0.0 mm 0.00 in/hr0.0 mm/hr 0.01 in0.3 mm
03:50 PM 70.8°F21.6°C 58.9°F14.9°C 66% 3.9 mph SW6.3 kmh SW 6.0 mph9.7 kmh 30.25 in1024.4 mb 0.00 in0.0 mm 0.00 in/hr0.0 mm/hr 0.01 in0.3 mm
03:40 PM 70.0°F21.1°C 58.1°F14.5°C 66% 2.6 mph WSW4.2 kmh WSW 4.0 mph6.4 kmh 30.25 in1024.4 mb 0.00 in0.0 mm 0.00 in/hr0.0 mm/hr 0.01 in0.3 mm
03:30 PM 69.5°F20.8°C 57.2°F14.0°C 65% 2.3 mph WSW3.7 kmh WSW 3.0 mph4.8 kmh 30.25 in1024.4 mb 0.00 in0.0 mm 0.00 in/hr0.0 mm/hr 0.01 in0.3 mm
03:20 PM 69.6°F20.9°C 58.6°F14.8°C 68% 2.8 mph SSW4.5 kmh SSW 3.0 mph4.8 kmh 30.25 in1024.4 mb 0.00 in0.0 mm 0.00 in/hr0.0 mm/hr 0.01 in0.3 mm
03:10 PM 69.6°F20.9°C 58.6°F14.8°C 68% 2.6 mph SW4.2 kmh SW 5.0 mph8.0 kmh 30.25 in1024.4 mb 0.00 in0.0 mm 0.00 in/hr0.0 mm/hr 0.01 in0.3 mm
03:00 PM 69.2°F20.7°C 58.6°F14.8°C 69% 2.1 mph SW3.4 kmh SW 3.0 mph4.8 kmh 30.25 in1024.4 mb 0.00 in0.0 mm 0.00 in/hr0.0 mm/hr 0.01 in0.3 mm
02:50 PM 68.7°F20.4°C 57.7°F14.3°C 68% 1.5 mph SW2.4 kmh SW 2.0 mph3.2 kmh 30.25 in1024.4 mb 0.00 in0.0 mm 0.00 in/hr0.0 mm/hr 0.01 in0.3 mm
02:40 PM 69.0°F20.6°C 58.0°F14.4°C 68% 3.6 mph SW5.8 kmh SW 4.0 mph6.4 kmh 30.25 in1024.4 mb 0.00 in0.0 mm 0.00 in/hr0.0 mm/hr 0.01 in0.3 mm
02:30 PM 69.5°F20.8°C 57.2°F14.0°C 65% 4.6 mph SW7.4 kmh SW 5.0 mph8.0 kmh 30.25 in1024.4 mb 0.00 in0.0 mm 0.00 in/hr0.0 mm/hr 0.01 in0.3 mm
02:20 PM 70.1°F21.2°C 57.8°F14.3°C 65% 4.5 mph SW7.2 kmh SW 5.0 mph8.0 kmh 30.25 in1024.4 mb 0.00 in0.0 mm 0.00 in/hr0.0 mm/hr 0.01 in0.3 mm
02:10 PM 70.5°F21.4°C 57.7°F14.3°C 64% 5.1 mph SSW8.2 kmh SSW 5.0 mph8.0 kmh 30.25 in1024.4 mb 0.00 in0.0 mm 0.00 in/hr0.0 mm/hr 0.01 in0.3 mm
02:00 PM 70.1°F21.2°C 57.8°F14.3°C 65% 3.9 mph SW6.3 kmh SW 8.0 mph12.9 kmh 30.25 in1024.4 mb 0.00 in0.0 mm 0.00 in/hr0.0 mm/hr 0.01 in0.3 mm
01:50 PM 69.3°F20.7°C 58.3°F14.6°C 68% 5.7 mph WSW9.2 kmh WSW 7.0 mph11.3 kmh 30.25 in1024.4 mb 0.00 in0.0 mm 0.00 in/hr0.0 mm/hr 0.01 in0.3 mm
01:40 PM 68.3°F20.2°C 57.8°F14.3°C 69% 1.1 mph NW1.8 kmh NW 1.0 mph1.6 kmh 30.25 in1024.4 mb 0.00 in0.0 mm 0.00 in/hr0.0 mm/hr 0.01 in0.3 mm
01:30 PM 68.3°F20.2°C 57.3°F14.1°C 68% 3.6 mph WNW5.8 kmh WNW 4.0 mph6.4 kmh 30.26 in1024.7 mb 0.00 in0.0 mm 0.00 in/hr0.0 mm/hr 0.01 in0.3 mm
01:20 PM 67.9°F19.9°C 57.8°F14.3°C 70% 2.8 mph SW4.5 kmh SW 4.0 mph6.4 kmh 30.26 in1024.7 mb 0.00 in0.0 mm 0.00 in/hr0.0 mm/hr 0.01 in0.3 mm
01:10 PM 67.9°F19.9°C 57.0°F13.9°C 68% 3.6 mph W5.8 kmh W 4.0 mph6.4 kmh 30.26 in1024.7 mb 0.00 in0.0 mm 0.00 in/hr0.0 mm/hr 0.01 in0.3 mm
01:00 PM 68.0°F20.0°C 58.2°F14.6°C 71% 2.7 mph SW4.3 kmh SW 3.0 mph4.8 kmh 30.26 in1024.7 mb 0.00 in0.0 mm 0.00 in/hr0.0 mm/hr 0.01 in0.3 mm
12:50 PM 67.3°F19.6°C 58.0°F14.4°C 72% 3.1 mph SW5.0 kmh SW 4.0 mph6.4 kmh 30.27 in1025.1 mb 0.00 in0.0 mm 0.00 in/hr0.0 mm/hr 0.01 in0.3 mm
12:40 PM 68.2°F20.1°C 57.2°F14.0°C 68% 5.6 mph WNW9.0 kmh WNW 10.0 mph16.1 kmh 30.27 in1025.1 mb 0.00 in0.0 mm 0.00 in/hr0.0 mm/hr 0.01 in0.3 mm
12:30 PM 68.3°F20.2°C 58.5°F14.7°C 71% 3.4 mph W5.5 kmh W 9.0 mph14.5 kmh 30.27 in1025.1 mb 0.00 in0.0 mm 0.00 in/hr0.0 mm/hr 0.01 in0.3 mm
12:20 PM 67.1°F19.5°C 58.2°F14.6°C 73% 2.4 mph SW3.9 kmh SW 5.0 mph8.0 kmh 30.27 in1025.1 mb 0.00 in0.0 mm 0.00 in/hr0.0 mm/hr 0.01 in0.3 mm
12:10 PM 66.3°F19.1°C 58.5°F14.7°C 76% 5.1 mph SW8.2 kmh SW 6.0 mph9.7 kmh 30.28 in1025.4 mb 0.00 in0.0 mm 0.00 in/hr0.0 mm/hr 0.01 in0.3 mm
12:00 PM 66.1°F18.9°C 58.3°F14.6°C 76% 4.2 mph WSW6.8 kmh WSW 6.0 mph9.7 kmh 30.27 in1025.1 mb 0.00 in0.0 mm 0.00 in/hr0.0 mm/hr 0.01 in0.3 mm
11:50 AM 66.0°F18.9°C 57.8°F14.3°C 75% 4.3 mph WSW6.9 kmh WSW 6.0 mph9.7 kmh 30.27 in1025.1 mb 0.00 in0.0 mm 0.00 in/hr0.0 mm/hr 0.01 in0.3 mm
11:40 AM 66.6°F19.2°C 58.4°F14.7°C 75% 4.5 mph NW7.2 kmh NW 7.0 mph11.3 kmh 30.27 in1025.1 mb 0.00 in0.0 mm 0.00 in/hr0.0 mm/hr 0.01 in0.3 mm
11:30 AM 67.0°F19.4°C 58.4°F14.7°C 74% 5.6 mph WNW9.0 kmh WNW 8.0 mph12.9 kmh 30.28 in1025.4 mb 0.00 in0.0 mm 0.00 in/hr0.0 mm/hr 0.01 in0.3 mm
11:20 AM 66.6°F19.2°C 59.2°F15.1°C 77% 6.9 mph SW11.1 kmh SW 10.0 mph16.1 kmh 30.28 in1025.4 mb 0.00 in0.0 mm 0.00 in/hr0.0 mm/hr 0.01 in0.3 mm
11:10 AM 65.8°F18.8°C 58.4°F14.7°C 77% 5.6 mph SW9.0 kmh SW 6.0 mph9.7 kmh 30.28 in1025.4 mb 0.00 in0.0 mm 0.00 in/hr0.0 mm/hr 0.01 in0.3 mm
11:00 AM 65.6°F18.7°C 58.9°F14.9°C 79% 4.3 mph SSW6.9 kmh SSW 7.0 mph11.3 kmh 30.28 in1025.4 mb 0.00 in0.0 mm 0.00 in/hr0.0 mm/hr 0.01 in0.3 mm
10:50 AM 65.6°F18.7°C 59.3°F15.2°C 80% 6.3 mph WSW10.1 kmh WSW 11.0 mph17.7 kmh 30.28 in1025.4 mb 0.00 in0.0 mm 0.00 in/hr0.0 mm/hr 0.01 in0.3 mm
10:40 AM 65.0°F18.3°C 59.0°F15.0°C 81% 5.8 mph WSW9.3 kmh WSW 8.0 mph12.9 kmh 30.28 in1025.4 mb 0.00 in0.0 mm 0.00 in/hr0.0 mm/hr 0.01 in0.3 mm
10:30 AM 64.4°F18.0°C 59.5°F15.3°C 84% 4.1 mph SW6.6 kmh SW 5.0 mph8.0 kmh 30.28 in1025.4 mb 0.00 in0.0 mm 0.00 in/hr0.0 mm/hr 0.01 in0.3 mm
10:20 AM 64.2°F17.9°C 59.3°F15.2°C 84% 3.4 mph WSW5.5 kmh WSW 3.0 mph4.8 kmh 30.28 in1025.4 mb 0.00 in0.0 mm 0.00 in/hr0.0 mm/hr 0.01 in0.3 mm
10:10 AM 63.8°F17.7°C 59.5°F15.3°C 86% 3.5 mph SW5.6 kmh SW 4.0 mph6.4 kmh 30.28 in1025.4 mb 0.00 in0.0 mm 0.00 in/hr0.0 mm/hr 0.01 in0.3 mm
10:00 AM 63.0°F17.2°C 58.7°F14.8°C 86% 4.5 mph SSW7.2 kmh SSW 6.0 mph9.7 kmh 30.27 in1025.1 mb 0.00 in0.0 mm 0.00 in/hr0.0 mm/hr 0.01 in0.3 mm
09:50 AM 62.2°F16.8°C 58.6°F14.8°C 88% 2.6 mph SW4.2 kmh SW 4.0 mph6.4 kmh 30.27 in1025.1 mb 0.00 in0.0 mm 0.00 in/hr0.0 mm/hr 0.01 in0.3 mm
09:40 AM 61.7°F16.5°C 58.4°F14.7°C 89% 5.0 mph SW8.0 kmh SW 6.0 mph9.7 kmh 30.27 in1025.1 mb 0.00 in0.0 mm 0.00 in/hr0.0 mm/hr 0.01 in0.3 mm
09:30 AM 61.2°F16.2°C 57.9°F14.4°C 89% 3.5 mph SW5.6 kmh SW 4.0 mph6.4 kmh 30.27 in1025.1 mb 0.00 in0.0 mm 0.00 in/hr0.0 mm/hr 0.01 in0.3 mm
09:20 AM 60.7°F15.9°C 57.7°F14.3°C 90% 5.5 mph SSW8.9 kmh SSW 7.0 mph11.3 kmh 30.27 in1025.1 mb 0.00 in0.0 mm 0.00 in/hr0.0 mm/hr 0.01 in0.3 mm
09:00 AM 60.1°F15.6°C 57.8°F14.3°C 92% 2.8 mph SW4.5 kmh SW 4.0 mph6.4 kmh 30.27 in1025.1 mb 0.00 in0.0 mm 0.00 in/hr0.0 mm/hr 0.01 in0.3 mm
08:40 AM 59.3°F15.2°C 57.3°F14.1°C 93% 2.4 mph SW3.9 kmh SW 3.0 mph4.8 kmh 30.26 in1024.7 mb 0.00 in0.0 mm 0.00 in/hr0.0 mm/hr 0.01 in0.3 mm
08:20 AM 58.3°F14.6°C 57.2°F14.0°C 96% Calm Calm -- 30.26 in1024.7 mb 0.00 in0.0 mm 0.00 in/hr0.0 mm/hr 0.01 in0.3 mm
08:00 AM 56.3°F13.5°C 55.7°F13.2°C 98% Calm Calm 1.0 mph1.6 kmh 30.25 in1024.4 mb 0.00 in0.0 mm 0.00 in/hr0.0 mm/hr 0.01 in0.3 mm
07:50 AM 55.3°F12.9°C 54.8°F12.7°C 98% Calm Calm -- 30.25 in1024.4 mb 0.00 in0.0 mm 0.00 in/hr0.0 mm/hr 0.01 in0.3 mm
07:40 AM 54.4°F12.4°C 53.8°F12.1°C 98% Calm Calm 1.0 mph1.6 kmh 30.25 in1024.4 mb 0.00 in0.0 mm 0.00 in/hr0.0 mm/hr 0.01 in0.3 mm
07:30 AM 53.8°F12.1°C 53.0°F11.7°C 97% Calm Calm -- 30.25 in1024.4 mb 0.00 in0.0 mm 0.00 in/hr0.0 mm/hr 0.01 in0.3 mm
07:20 AM 53.4°F11.9°C 52.8°F11.6°C 98% Calm Calm 1.0 mph1.6 kmh 30.25 in1024.4 mb 0.00 in0.0 mm 0.00 in/hr0.0 mm/hr 0.01 in0.3 mm
07:00 AM 52.5°F11.4°C 51.7°F10.9°C 97% Calm Calm -- 30.24 in1024.0 mb 0.00 in0.0 mm 0.00 in/hr0.0 mm/hr 0.01 in0.3 mm
06:50 AM 52.3°F11.3°C 51.5°F10.8°C 97% 0.2 mph E0.3 kmh E 1.0 mph1.6 kmh 30.24 in1024.0 mb 0.00 in0.0 mm 0.00 in/hr0.0 mm/hr 0.01 in0.3 mm
06:40 AM 52.4°F11.3°C 51.5°F10.8°C 97% Calm Calm -- 30.24 in1024.0 mb 0.01 in0.3 mm 0.06 in/hr1.5 mm/hr 0.01 in0.3 mm
06:30 AM 52.3°F11.3°C 51.5°F10.8°C 97% Calm Calm -- 30.24 in1024.0 mb 0.00 in0.0 mm 0.00 in/hr0.0 mm/hr 0.00 in0.0 mm
06:20 AM 52.3°F11.3°C 51.4°F10.8°C 97% Calm Calm -- 30.24 in1024.0 mb 0.00 in0.0 mm 0.00 in/hr0.0 mm/hr 0.00 in0.0 mm
06:10 AM 52.0°F11.1°C 51.2°F10.7°C 97% Calm Calm -- 30.23 in1023.7 mb 0.00 in0.0 mm 0.00 in/hr0.0 mm/hr 0.00 in0.0 mm
06:00 AM 52.2°F11.2°C 51.7°F10.9°C 98% Calm Calm -- 30.24 in1024.0 mb 0.00 in0.0 mm 0.00 in/hr0.0 mm/hr 0.00 in0.0 mm
05:50 AM 51.9°F11.1°C 51.1°F10.6°C 97% Calm Calm -- 30.24 in1024.0 mb 0.00 in0.0 mm 0.00 in/hr0.0 mm/hr 0.00 in0.0 mm
05:40 AM 52.6°F11.4°C 51.8°F11.0°C 97% Calm Calm -- 30.24 in1024.0 mb 0.00 in0.0 mm 0.00 in/hr0.0 mm/hr 0.00 in0.0 mm
05:30 AM 52.4°F11.3°C 51.6°F10.9°C 97% Calm Calm -- 30.24 in1024.0 mb 0.00 in0.0 mm 0.00 in/hr0.0 mm/hr 0.00 in0.0 mm
05:20 AM 52.4°F11.3°C 51.6°F10.9°C 97% Calm Calm -- 30.24 in1024.0 mb 0.00 in0.0 mm 0.00 in/hr0.0 mm/hr 0.00 in0.0 mm
05:10 AM 52.8°F11.6°C 52.0°F11.1°C 97% Calm Calm -- 30.24 in1024.0 mb 0.00 in0.0 mm 0.00 in/hr0.0 mm/hr 0.00 in0.0 mm
05:00 AM 53.3°F11.8°C 52.5°F11.4°C 97% Calm Calm -- 30.24 in1024.0 mb 0.00 in0.0 mm 0.00 in/hr0.0 mm/hr 0.00 in0.0 mm
04:50 AM 53.5°F11.9°C 52.7°F11.5°C 97% Calm Calm -- 30.24 in1024.0 mb 0.00 in0.0 mm 0.00 in/hr0.0 mm/hr 0.00 in0.0 mm
04:40 AM 53.7°F12.1°C 52.9°F11.6°C 97% 0.5 mph E0.8 kmh E 1.0 mph1.6 kmh 30.24 in1024.0 mb 0.00 in0.0 mm 0.00 in/hr0.0 mm/hr 0.00 in0.0 mm
04:30 AM 54.0°F12.2°C 53.2°F11.8°C 97% 0.2 mph E0.3 kmh E -- 30.24 in1024.0 mb 0.00 in0.0 mm 0.00 in/hr0.0 mm/hr 0.00 in0.0 mm
04:20 AM 54.4°F12.4°C 53.6°F12.0°C 97% Calm Calm -- 30.23 in1023.7 mb 0.00 in0.0 mm 0.00 in/hr0.0 mm/hr 0.00 in0.0 mm
04:10 AM 54.7°F12.6°C 53.8°F12.1°C 97% 0.3 mph E0.5 kmh E -- 30.24 in1024.0 mb 0.00 in0.0 mm 0.00 in/hr0.0 mm/hr 0.00 in0.0 mm
04:00 AM 54.3°F12.4°C 53.5°F11.9°C 97% Calm Calm -- 30.24 in1024.0 mb 0.00 in0.0 mm 0.00 in/hr0.0 mm/hr 0.00 in0.0 mm
03:50 AM 54.7°F12.6°C 53.6°F12.0°C 96% Calm Calm -- 30.24 in1024.0 mb 0.00 in0.0 mm 0.00 in/hr0.0 mm/hr 0.00 in0.0 mm
03:40 AM 55.3°F12.9°C 54.5°F12.5°C 97% Calm Calm -- 30.24 in1024.0 mb 0.00 in0.0 mm 0.00 in/hr0.0 mm/hr 0.00 in0.0 mm
03:30 AM 55.3°F12.9°C 54.5°F12.5°C 97% 0.7 mph E1.1 kmh E 2.0 mph3.2 kmh 30.24 in1024.0 mb 0.00 in0.0 mm 0.00 in/hr0.0 mm/hr 0.00 in0.0 mm
03:20 AM 55.4°F13.0°C 54.6°F12.6°C 97% 0.9 mph E1.4 kmh E 1.0 mph1.6 kmh 30.24 in1024.0 mb 0.00 in0.0 mm 0.00 in/hr0.0 mm/hr 0.00 in0.0 mm
03:10 AM 55.4°F13.0°C 54.3°F12.4°C 96% 0.2 mph E0.3 kmh E 1.0 mph1.6 kmh 30.24 in1024.0 mb 0.00 in0.0 mm 0.00 in/hr0.0 mm/hr 0.00 in0.0 mm
03:00 AM 55.5°F13.1°C 54.4°F12.4°C 96% 0.5 mph SE0.8 kmh SE 1.0 mph1.6 kmh 30.24 in1024.0 mb 0.00 in0.0 mm 0.00 in/hr0.0 mm/hr 0.00 in0.0 mm
02:50 AM 56.3°F13.5°C 55.1°F12.8°C 96% Calm Calm -- 30.24 in1024.0 mb 0.00 in0.0 mm 0.00 in/hr0.0 mm/hr 0.00 in0.0 mm
02:40 AM 57.1°F13.9°C 56.3°F13.5°C 97% Calm Calm -- 30.24 in1024.0 mb 0.00 in0.0 mm 0.00 in/hr0.0 mm/hr 0.00 in0.0 mm
02:20 AM 57.2°F14.0°C 56.1°F13.4°C 96% 0.8 mph W1.3 kmh W 1.0 mph1.6 kmh 30.24 in1024.0 mb 0.00 in0.0 mm 0.00 in/hr0.0 mm/hr 0.00 in0.0 mm
02:10 AM 57.5°F14.2°C 56.3°F13.5°C 96% 2.5 mph SW4.0 kmh SW 4.0 mph6.4 kmh 30.24 in1024.0 mb 0.00 in0.0 mm 0.00 in/hr0.0 mm/hr 0.00 in0.0 mm
02:00 AM 57.4°F14.1°C 56.3°F13.5°C 96% 1.2 mph SSW1.9 kmh SSW 2.0 mph3.2 kmh 30.24 in1024.0 mb 0.00 in0.0 mm 0.00 in/hr0.0 mm/hr 0.00 in0.0 mm
01:50 AM 57.6°F14.2°C 56.4°F13.6°C 96% 1.6 mph SW2.6 kmh SW 4.0 mph6.4 kmh 30.24 in1024.0 mb 0.00 in0.0 mm 0.00 in/hr0.0 mm/hr 0.00 in0.0 mm
01:40 AM 57.8°F14.3°C 56.7°F13.7°C 96% 0.6 mph SW1.0 kmh SW 2.0 mph3.2 kmh 30.24 in1024.0 mb 0.00 in0.0 mm 0.00 in/hr0.0 mm/hr 0.00 in0.0 mm
01:30 AM 57.9°F14.4°C 56.8°F13.8°C 96% 1.3 mph SW2.1 kmh SW 1.0 mph1.6 kmh 30.24 in1024.0 mb 0.00 in0.0 mm 0.00 in/hr0.0 mm/hr 0.00 in0.0 mm
01:20 AM 58.2°F14.6°C 57.0°F13.9°C 96% 1.8 mph SW2.9 kmh SW 3.0 mph4.8 kmh 30.24 in1024.0 mb 0.00 in0.0 mm 0.00 in/hr0.0 mm/hr 0.00 in0.0 mm